sensor_id;sensor_type;location;lat;lon;timestamp;P1;durP1;ratioP1;P2;durP2;ratioP2
78430;SDS011;67727;50.236;22.452;2023-02-15T00:02:06;29.60;;;13.60;;
78430;SDS011;67727;50.236;22.452;2023-02-15T00:04:33;26.60;;;13.10;;
78430;SDS011;67727;50.236;22.452;2023-02-15T00:07:21;30.80;;;14.20;;
78430;SDS011;67727;50.236;22.452;2023-02-15T00:09:50;27.70;;;13.80;;
78430;SDS011;67727;50.236;22.452;2023-02-15T00:12:17;28.80;;;14.80;;
78430;SDS011;67727;50.236;22.452;2023-02-15T00:14:44;31.80;;;15.50;;
78430;SDS011;67727;50.236;22.452;2023-02-15T00:17:11;28.10;;;13.70;;
78430;SDS011;67727;50.236;22.452;2023-02-15T00:19:38;28.50;;;13.70;;
78430;SDS011;67727;50.236;22.452;2023-02-15T00:22:06;23.80;;;11.90;;
78430;SDS011;67727;50.236;22.452;2023-02-15T00:24:33;29.50;;;13.90;;
78430;SDS011;67727;50.236;22.452;2023-02-15T00:27:00;23.10;;;14.20;;
78430;SDS011;67727;50.236;22.452;2023-02-15T00:29:27;24.60;;;13.80;;
78430;SDS011;67727;50.236;22.452;2023-02-15T00:31:54;31.70;;;12.00;;
78430;SDS011;67727;50.236;22.452;2023-02-15T00:34:24;27.10;;;12.60;;
78430;SDS011;67727;50.236;22.452;2023-02-15T00:36:54;24.90;;;12.30;;
78430;SDS011;67727;50.236;22.452;2023-02-15T00:39:21;26.80;;;11.90;;
78430;SDS011;67727;50.236;22.452;2023-02-15T00:41:50;27.40;;;14.70;;
78430;SDS011;67727;50.236;22.452;2023-02-15T00:44:19;26.10;;;13.90;;
78430;SDS011;67727;50.236;22.452;2023-02-15T00:46:46;25.10;;;12.40;;
78430;SDS011;67727;50.236;22.452;2023-02-15T00:49:12;22.10;;;12.80;;
78430;SDS011;67727;50.236;22.452;2023-02-15T00:51:39;21.90;;;13.00;;
78430;SDS011;67727;50.236;22.452;2023-02-15T00:54:06;22.20;;;11.70;;
78430;SDS011;67727;50.236;22.452;2023-02-15T00:56:36;24.90;;;13.60;;
78430;SDS011;67727;50.236;22.452;2023-02-15T00:59:05;26.50;;;12.40;;
78430;SDS011;67727;50.236;22.452;2023-02-15T01:01:32;20.80;;;11.30;;
78430;SDS011;67727;50.236;22.452;2023-02-15T01:04:01;26.70;;;12.90;;
78430;SDS011;67727;50.236;22.452;2023-02-15T01:06:28;21.00;;;10.70;;
78430;SDS011;67727;50.236;22.452;2023-02-15T01:08:55;31.50;;;13.10;;
78430;SDS011;67727;50.236;22.452;2023-02-15T01:11:22;29.70;;;13.00;;
78430;SDS011;67727;50.236;22.452;2023-02-15T01:13:54;23.60;;;12.40;;
78430;SDS011;67727;50.236;22.452;2023-02-15T01:16:23;24.40;;;13.00;;
78430;SDS011;67727;50.236;22.452;2023-02-15T01:18:51;25.40;;;13.00;;
78430;SDS011;67727;50.236;22.452;2023-02-15T01:21:19;23.20;;;12.80;;
78430;SDS011;67727;50.236;22.452;2023-02-15T01:23:48;22.40;;;11.20;;
78430;SDS011;67727;50.236;22.452;2023-02-15T01:26:15;24.20;;;13.20;;
78430;SDS011;67727;50.236;22.452;2023-02-15T01:28:43;22.60;;;11.90;;
78430;SDS011;67727;50.236;22.452;2023-02-15T01:31:11;20.80;;;11.60;;
78430;SDS011;67727;50.236;22.452;2023-02-15T01:33:40;27.70;;;13.60;;
78430;SDS011;67727;50.236;22.452;2023-02-15T01:36:08;24.20;;;11.40;;
78430;SDS011;67727;50.236;22.452;2023-02-15T01:38:34;25.00;;;11.80;;
78430;SDS011;67727;50.236;22.452;2023-02-15T01:41:02;24.90;;;12.10;;
78430;SDS011;67727;50.236;22.452;2023-02-15T01:49:11;23.10;;;11.40;;
78430;SDS011;67727;50.236;22.452;2023-02-15T01:51:43;24.60;;;13.30;;
78430;SDS011;67727;50.236;22.452;2023-02-15T01:54:15;20.70;;;12.40;;
78430;SDS011;67727;50.236;22.452;2023-02-15T01:56:48;25.00;;;13.60;;
78430;SDS011;67727;50.236;22.452;2023-02-15T01:59:16;27.70;;;11.40;;
78430;SDS011;67727;50.236;22.452;2023-02-15T02:01:48;23.20;;;13.10;;
78430;SDS011;67727;50.236;22.452;2023-02-15T02:04:18;22.40;;;13.60;;
78430;SDS011;67727;50.236;22.452;2023-02-15T02:06:48;23.50;;;12.70;;
78430;SDS011;67727;50.236;22.452;2023-02-15T02:09:20;25.70;;;11.30;;
78430;SDS011;67727;50.236;22.452;2023-02-15T02:11:47;28.40;;;12.50;;
78430;SDS011;67727;50.236;22.452;2023-02-15T02:14:17;20.90;;;11.90;;
78430;SDS011;67727;50.236;22.452;2023-02-15T02:16:48;24.20;;;11.80;;
78430;SDS011;67727;50.236;22.452;2023-02-15T02:44:42;21.00;;;9.80;;
78430;SDS011;67727;50.236;22.452;2023-02-15T02:47:16;25.60;;;12.90;;
78430;SDS011;67727;50.236;22.452;2023-02-15T02:50:17;23.70;;;12.70;;
78430;SDS011;67727;50.236;22.452;2023-02-15T02:52:50;23.70;;;13.50;;
78430;SDS011;67727;50.236;22.452;2023-02-15T03:01:15;27.00;;;13.70;;
78430;SDS011;67727;50.236;22.452;2023-02-15T03:06:13;26.40;;;14.20;;
78430;SDS011;67727;50.236;22.452;2023-02-15T03:08:51;26.20;;;13.00;;
78430;SDS011;67727;50.236;22.452;2023-02-15T03:11:24;22.00;;;12.50;;
78430;SDS011;67727;50.236;22.452;2023-02-15T03:13:51;24.00;;;13.00;;
78430;SDS011;67727;50.236;22.452;2023-02-15T03:16:18;23.80;;;12.90;;
78430;SDS011;67727;50.236;22.452;2023-02-15T03:21:48;23.00;;;12.20;;
78430;SDS011;67727;50.236;22.452;2023-02-15T03:24:25;27.60;;;13.40;;
78430;SDS011;67727;50.236;22.452;2023-02-15T03:26:55;25.50;;;12.00;;
78430;SDS011;67727;50.236;22.452;2023-02-15T03:29:26;30.70;;;14.00;;
78430;SDS011;67727;50.236;22.452;2023-02-15T03:32:03;25.40;;;14.00;;
78430;SDS011;67727;50.236;22.452;2023-02-15T03:34:33;25.30;;;13.20;;
78430;SDS011;67727;50.236;22.452;2023-02-15T03:37:05;27.20;;;14.20;;
78430;SDS011;67727;50.236;22.452;2023-02-15T03:43:12;19.90;;;11.90;;
78430;SDS011;67727;50.236;22.452;2023-02-15T03:48:55;26.00;;;13.60;;
78430;SDS011;67727;50.236;22.452;2023-02-15T03:51:28;24.00;;;13.20;;
78430;SDS011;67727;50.236;22.452;2023-02-15T03:54:11;24.00;;;12.30;;
78430;SDS011;67727;50.236;22.452;2023-02-15T03:57:04;22.90;;;13.20;;
78430;SDS011;67727;50.236;22.452;2023-02-15T03:59:52;25.70;;;13.10;;
78430;SDS011;67727;50.236;22.452;2023-02-15T04:05:38;26.20;;;13.00;;
78430;SDS011;67727;50.236;22.452;2023-02-15T04:08:08;26.60;;;11.60;;
78430;SDS011;67727;50.236;22.452;2023-02-15T04:10:35;27.20;;;12.70;;
78430;SDS011;67727;50.236;22.452;2023-02-15T04:13:22;26.20;;;13.50;;
78430;SDS011;67727;50.236;22.452;2023-02-15T04:18:41;24.70;;;13.10;;
78430;SDS011;67727;50.236;22.452;2023-02-15T04:21:28;28.00;;;13.60;;
78430;SDS011;67727;50.236;22.452;2023-02-15T04:24:15;20.30;;;10.80;;
78430;SDS011;67727;50.236;22.452;2023-02-15T04:27:01;16.60;;;8.50;;
78430;SDS011;67727;50.236;22.452;2023-02-15T04:29:29;19.30;;;10.90;;
78430;SDS011;67727;50.236;22.452;2023-02-15T04:31:57;25.00;;;13.40;;
78430;SDS011;67727;50.236;22.452;2023-02-15T04:34:26;25.30;;;12.70;;
78430;SDS011;67727;50.236;22.452;2023-02-15T04:36:53;26.30;;;12.40;;
78430;SDS011;67727;50.236;22.452;2023-02-15T04:39:22;22.60;;;12.10;;
78430;SDS011;67727;50.236;22.452;2023-02-15T04:41:49;25.50;;;12.50;;
78430;SDS011;67727;50.236;22.452;2023-02-15T04:44:16;25.00;;;12.80;;
78430;SDS011;67727;50.236;22.452;2023-02-15T04:46:42;26.50;;;12.60;;
78430;SDS011;67727;50.236;22.452;2023-02-15T04:49:12;26.00;;;12.60;;
78430;SDS011;67727;50.236;22.452;2023-02-15T04:51:38;28.80;;;13.70;;
78430;SDS011;67727;50.236;22.452;2023-02-15T04:54:05;24.10;;;13.20;;
78430;SDS011;67727;50.236;22.452;2023-02-15T04:56:32;27.20;;;12.30;;
78430;SDS011;67727;50.236;22.452;2023-02-15T04:59:01;22.70;;;11.90;;
78430;SDS011;67727;50.236;22.452;2023-02-15T05:01:27;25.40;;;13.20;;
78430;SDS011;67727;50.236;22.452;2023-02-15T05:03:54;26.30;;;14.10;;
78430;SDS011;67727;50.236;22.452;2023-02-15T05:06:21;23.40;;;12.40;;
78430;SDS011;67727;50.236;22.452;2023-02-15T05:08:48;30.70;;;15.00;;
78430;SDS011;67727;50.236;22.452;2023-02-15T05:11:18;27.40;;;14.00;;
78430;SDS011;67727;50.236;22.452;2023-02-15T05:13:45;29.80;;;16.10;;
78430;SDS011;67727;50.236;22.452;2023-02-15T05:16:11;30.60;;;13.00;;
78430;SDS011;67727;50.236;22.452;2023-02-15T05:18:38;28.80;;;13.40;;
78430;SDS011;67727;50.236;22.452;2023-02-15T05:21:05;30.70;;;13.80;;
78430;SDS011;67727;50.236;22.452;2023-02-15T05:23:32;29.50;;;15.30;;
78430;SDS011;67727;50.236;22.452;2023-02-15T05:25:59;37.00;;;18.90;;
78430;SDS011;67727;50.236;22.452;2023-02-15T05:28:44;36.50;;;18.00;;
78430;SDS011;67727;50.236;22.452;2023-02-15T05:33:39;34.60;;;18.10;;
78430;SDS011;67727;50.236;22.452;2023-02-15T05:36:07;47.00;;;22.00;;
78430;SDS011;67727;50.236;22.452;2023-02-15T05:38:34;35.70;;;18.50;;
78430;SDS011;67727;50.236;22.452;2023-02-15T05:41:04;42.70;;;21.00;;
78430;SDS011;67727;50.236;22.452;2023-02-15T05:43:32;35.10;;;19.50;;
78430;SDS011;67727;50.236;22.452;2023-02-15T05:46:01;43.60;;;21.40;;
78430;SDS011;67727;50.236;22.452;2023-02-15T05:48:29;44.40;;;21.50;;
78430;SDS011;67727;50.236;22.452;2023-02-15T05:53:34;38.10;;;19.90;;
78430;SDS011;67727;50.236;22.452;2023-02-15T05:56:03;35.50;;;19.90;;
78430;SDS011;67727;50.236;22.452;2023-02-15T05:58:33;37.60;;;17.60;;
78430;SDS011;67727;50.236;22.452;2023-02-15T06:03:35;39.50;;;17.00;;
78430;SDS011;67727;50.236;22.452;2023-02-15T06:06:03;41.10;;;19.90;;
78430;SDS011;67727;50.236;22.452;2023-02-15T06:08:31;42.60;;;22.20;;
78430;SDS011;67727;50.236;22.452;2023-02-15T06:10:59;49.00;;;25.30;;
78430;SDS011;67727;50.236;22.452;2023-02-15T06:13:28;57.70;;;27.40;;
78430;SDS011;67727;50.236;22.452;2023-02-15T06:15:55;45.20;;;26.70;;
78430;SDS011;67727;50.236;22.452;2023-02-15T06:18:22;49.60;;;27.20;;
78430;SDS011;67727;50.236;22.452;2023-02-15T06:20:49;45.30;;;25.70;;
78430;SDS011;67727;50.236;22.452;2023-02-15T06:23:16;50.10;;;25.10;;
78430;SDS011;67727;50.236;22.452;2023-02-15T06:25:44;49.50;;;24.40;;
78430;SDS011;67727;50.236;22.452;2023-02-15T06:28:12;49.10;;;25.90;;
78430;SDS011;67727;50.236;22.452;2023-02-15T06:30:39;52.00;;;27.00;;
78430;SDS011;67727;50.236;22.452;2023-02-15T06:33:06;48.10;;;24.00;;
78430;SDS011;67727;50.236;22.452;2023-02-15T06:35:33;43.30;;;22.60;;
78430;SDS011;67727;50.236;22.452;2023-02-15T06:38:00;45.80;;;23.20;;
78430;SDS011;67727;50.236;22.452;2023-02-15T06:40:27;46.80;;;19.90;;
78430;SDS011;67727;50.236;22.452;2023-02-15T06:42:56;40.80;;;20.40;;
78430;SDS011;67727;50.236;22.452;2023-02-15T06:45:22;44.70;;;21.40;;
78430;SDS011;67727;50.236;22.452;2023-02-15T06:47:49;40.50;;;20.20;;
78430;SDS011;67727;50.236;22.452;2023-02-15T06:50:16;38.90;;;21.00;;
78430;SDS011;67727;50.236;22.452;2023-02-15T06:52:43;40.10;;;21.10;;
78430;SDS011;67727;50.236;22.452;2023-02-15T06:55:13;38.10;;;21.80;;
78430;SDS011;67727;50.236;22.452;2023-02-15T06:57:40;45.10;;;23.70;;
78430;SDS011;67727;50.236;22.452;2023-02-15T07:00:07;50.20;;;24.90;;
78430;SDS011;67727;50.236;22.452;2023-02-15T07:02:37;51.70;;;25.10;;
78430;SDS011;67727;50.236;22.452;2023-02-15T07:05:04;48.20;;;24.50;;
78430;SDS011;67727;50.236;22.452;2023-02-15T07:07:31;41.30;;;21.50;;
78430;SDS011;67727;50.236;22.452;2023-02-15T07:09:58;37.70;;;19.90;;
78430;SDS011;67727;50.236;22.452;2023-02-15T07:12:25;41.10;;;20.30;;
78430;SDS011;67727;50.236;22.452;2023-02-15T07:15:17;38.50;;;22.30;;
78430;SDS011;67727;50.236;22.452;2023-02-15T07:17:47;46.00;;;23.10;;
78430;SDS011;67727;50.236;22.452;2023-02-15T07:20:22;43.10;;;20.60;;
78430;SDS011;67727;50.236;22.452;2023-02-15T07:22:49;38.60;;;18.70;;
78430;SDS011;67727;50.236;22.452;2023-02-15T07:25:17;42.40;;;16.90;;
78430;SDS011;67727;50.236;22.452;2023-02-15T07:27:44;36.70;;;17.30;;
78430;SDS011;67727;50.236;22.452;2023-02-15T07:30:13;31.80;;;15.60;;
78430;SDS011;67727;50.236;22.452;2023-02-15T07:32:42;32.90;;;17.10;;
78430;SDS011;67727;50.236;22.452;2023-02-15T07:35:28;26.30;;;14.30;;
78430;SDS011;67727;50.236;22.452;2023-02-15T07:37:59;31.00;;;16.10;;
78430;SDS011;67727;50.236;22.452;2023-02-15T07:40:29;27.90;;;16.30;;
78430;SDS011;67727;50.236;22.452;2023-02-15T07:42:57;30.00;;;15.70;;
78430;SDS011;67727;50.236;22.452;2023-02-15T07:45:25;26.50;;;13.00;;
78430;SDS011;67727;50.236;22.452;2023-02-15T07:47:52;22.20;;;13.80;;
78430;SDS011;67727;50.236;22.452;2023-02-15T07:50:24;22.20;;;12.90;;
78430;SDS011;67727;50.236;22.452;2023-02-15T07:52:53;23.40;;;12.70;;
78430;SDS011;67727;50.236;22.452;2023-02-15T07:55:20;23.90;;;12.80;;
78430;SDS011;67727;50.236;22.452;2023-02-15T07:57:48;23.80;;;13.80;;
78430;SDS011;67727;50.236;22.452;2023-02-15T08:00:17;22.40;;;13.00;;
78430;SDS011;67727;50.236;22.452;2023-02-15T08:02:48;24.80;;;12.30;;
78430;SDS011;67727;50.236;22.452;2023-02-15T08:05:36;20.40;;;11.50;;
78430;SDS011;67727;50.236;22.452;2023-02-15T08:08:03;21.00;;;12.20;;
78430;SDS011;67727;50.236;22.452;2023-02-15T08:10:30;20.30;;;11.50;;
78430;SDS011;67727;50.236;22.452;2023-02-15T08:13:18;20.90;;;11.10;;
78430;SDS011;67727;50.236;22.452;2023-02-15T08:15:50;19.90;;;10.40;;
78430;SDS011;67727;50.236;22.452;2023-02-15T08:18:17;19.80;;;11.50;;
78430;SDS011;67727;50.236;22.452;2023-02-15T08:20:48;26.00;;;13.20;;
78430;SDS011;67727;50.236;22.452;2023-02-15T08:23:16;27.10;;;12.00;;
78430;SDS011;67727;50.236;22.452;2023-02-15T08:25:43;41.40;;;18.10;;
78430;SDS011;67727;50.236;22.452;2023-02-15T08:28:09;39.40;;;16.90;;
78430;SDS011;67727;50.236;22.452;2023-02-15T08:30:36;24.60;;;12.40;;
78430;SDS011;67727;50.236;22.452;2023-02-15T08:33:03;25.00;;;12.90;;
78430;SDS011;67727;50.236;22.452;2023-02-15T08:35:30;37.90;;;17.20;;
78430;SDS011;67727;50.236;22.452;2023-02-15T08:37:57;35.00;;;17.20;;
78430;SDS011;67727;50.236;22.452;2023-02-15T08:40:24;27.40;;;13.30;;
78430;SDS011;67727;50.236;22.452;2023-02-15T08:42:50;24.40;;;12.30;;
78430;SDS011;67727;50.236;22.452;2023-02-15T08:45:17;22.00;;;12.40;;
78430;SDS011;67727;50.236;22.452;2023-02-15T08:47:44;25.00;;;12.00;;
78430;SDS011;67727;50.236;22.452;2023-02-15T08:50:13;16.80;;;9.60;;
78430;SDS011;67727;50.236;22.452;2023-02-15T08:52:40;21.50;;;12.10;;
78430;SDS011;67727;50.236;22.452;2023-02-15T08:55:07;21.20;;;12.10;;
78430;SDS011;67727;50.236;22.452;2023-02-15T08:57:36;18.20;;;10.80;;
78430;SDS011;67727;50.236;22.452;2023-02-15T09:00:05;19.40;;;11.30;;
78430;SDS011;67727;50.236;22.452;2023-02-15T09:02:32;18.20;;;10.40;;
78430;SDS011;67727;50.236;22.452;2023-02-15T09:04:59;18.30;;;10.30;;
78430;SDS011;67727;50.236;22.452;2023-02-15T09:07:28;20.30;;;11.60;;
78430;SDS011;67727;50.236;22.452;2023-02-15T09:09:55;22.10;;;12.20;;
78430;SDS011;67727;50.236;22.452;2023-02-15T09:12:22;17.90;;;10.00;;
78430;SDS011;67727;50.236;22.452;2023-02-15T09:14:49;19.40;;;11.00;;
78430;SDS011;67727;50.236;22.452;2023-02-15T09:17:19;15.60;;;10.10;;
78430;SDS011;67727;50.236;22.452;2023-02-15T09:19:46;22.90;;;12.80;;
78430;SDS011;67727;50.236;22.452;2023-02-15T09:22:13;19.40;;;11.20;;
78430;SDS011;67727;50.236;22.452;2023-02-15T09:24:39;21.20;;;11.40;;
78430;SDS011;67727;50.236;22.452;2023-02-15T09:27:06;20.60;;;11.30;;
78430;SDS011;67727;50.236;22.452;2023-02-15T09:29:33;23.10;;;11.90;;
78430;SDS011;67727;50.236;22.452;2023-02-15T09:32:00;18.20;;;11.70;;
78430;SDS011;67727;50.236;22.452;2023-02-15T09:34:27;23.50;;;14.40;;
78430;SDS011;67727;50.236;22.452;2023-02-15T09:36:54;21.20;;;13.00;;
78430;SDS011;67727;50.236;22.452;2023-02-15T09:39:24;17.30;;;11.20;;
78430;SDS011;67727;50.236;22.452;2023-02-15T09:52:48;17.60;;;10.70;;
78430;SDS011;67727;50.236;22.452;2023-02-15T10:01:19;18.80;;;10.80;;
78430;SDS011;67727;50.236;22.452;2023-02-15T10:06:31;17.20;;;10.20;;
78430;SDS011;67727;50.236;22.452;2023-02-15T10:09:14;21.90;;;11.80;;
78430;SDS011;67727;50.236;22.452;2023-02-15T10:17:35;19.30;;;10.30;;
78430;SDS011;67727;50.236;22.452;2023-02-15T10:28:48;23.00;;;13.10;;
78430;SDS011;67727;50.236;22.452;2023-02-15T10:31:32;19.20;;;12.10;;
78430;SDS011;67727;50.236;22.452;2023-02-15T10:45:41;20.30;;;11.10;;
78430;SDS011;67727;50.236;22.452;2023-02-15T10:56:59;17.10;;;11.00;;
78430;SDS011;67727;50.236;22.452;2023-02-15T11:07:58;19.00;;;11.10;;
78430;SDS011;67727;50.236;22.452;2023-02-15T11:10:44;22.30;;;12.50;;
78430;SDS011;67727;50.236;22.452;2023-02-15T11:13:18;18.20;;;11.00;;
78430;SDS011;67727;50.236;22.452;2023-02-15T11:15:51;19.10;;;11.00;;
78430;SDS011;67727;50.236;22.452;2023-02-15T11:23:40;21.80;;;11.30;;
78430;SDS011;67727;50.236;22.452;2023-02-15T11:26:19;20.60;;;11.00;;
78430;SDS011;67727;50.236;22.452;2023-02-15T11:28:55;19.70;;;11.00;;
78430;SDS011;67727;50.236;22.452;2023-02-15T11:31:26;19.90;;;10.80;;
78430;SDS011;67727;50.236;22.452;2023-02-15T11:34:04;18.00;;;11.20;;
78430;SDS011;67727;50.236;22.452;2023-02-15T11:36:41;21.00;;;12.00;;
78430;SDS011;67727;50.236;22.452;2023-02-15T11:39:14;19.50;;;11.60;;
78430;SDS011;67727;50.236;22.452;2023-02-15T11:41:52;24.10;;;12.10;;
78430;SDS011;67727;50.236;22.452;2023-02-15T11:44:32;19.60;;;11.80;;
78430;SDS011;67727;50.236;22.452;2023-02-15T11:47:07;20.10;;;12.10;;
78430;SDS011;67727;50.236;22.452;2023-02-15T11:49:37;21.20;;;11.80;;
78430;SDS011;67727;50.236;22.452;2023-02-15T11:52:05;22.40;;;12.60;;
78430;SDS011;67727;50.236;22.452;2023-02-15T11:54:41;21.70;;;12.00;;
78430;SDS011;67727;50.236;22.452;2023-02-15T11:59:51;24.70;;;13.30;;
78430;SDS011;67727;50.236;22.452;2023-02-15T12:02:22;21.10;;;12.20;;
78430;SDS011;67727;50.236;22.452;2023-02-15T12:04:51;17.60;;;11.20;;
78430;SDS011;67727;50.236;22.452;2023-02-15T12:07:30;23.70;;;13.20;;
78430;SDS011;67727;50.236;22.452;2023-02-15T12:13:26;21.40;;;13.50;;
78430;SDS011;67727;50.236;22.452;2023-02-15T12:15:47;20.40;;;12.10;;
78430;SDS011;67727;50.236;22.452;2023-02-15T12:20:53;20.10;;;12.50;;
78430;SDS011;67727;50.236;22.452;2023-02-15T12:23:28;30.80;;;15.10;;
78430;SDS011;67727;50.236;22.452;2023-02-15T12:25:56;22.30;;;12.90;;
78430;SDS011;67727;50.236;22.452;2023-02-15T12:31:03;22.50;;;12.10;;
78430;SDS011;67727;50.236;22.452;2023-02-15T12:36:18;20.90;;;10.70;;
78430;SDS011;67727;50.236;22.452;2023-02-15T12:41:29;21.70;;;12.70;;
78430;SDS011;67727;50.236;22.452;2023-02-15T12:44:03;36.80;;;16.70;;
78430;SDS011;67727;50.236;22.452;2023-02-15T12:46:33;27.90;;;14.10;;
78430;SDS011;67727;50.236;22.452;2023-02-15T12:56:48;20.40;;;12.80;;
78430;SDS011;67727;50.236;22.452;2023-02-15T12:59:21;22.50;;;12.20;;
78430;SDS011;67727;50.236;22.452;2023-02-15T13:01:48;22.50;;;12.50;;
78430;SDS011;67727;50.236;22.452;2023-02-15T13:04:26;25.30;;;14.70;;
78430;SDS011;67727;50.236;22.452;2023-02-15T13:06:55;21.70;;;12.10;;
78430;SDS011;67727;50.236;22.452;2023-02-15T13:12:16;34.90;;;19.10;;
78430;SDS011;67727;50.236;22.452;2023-02-15T13:14:50;23.20;;;12.50;;
78430;SDS011;67727;50.236;22.452;2023-02-15T13:17:20;85.40;;;38.80;;
78430;SDS011;67727;50.236;22.452;2023-02-15T13:19:53;35.30;;;18.50;;
78430;SDS011;67727;50.236;22.452;2023-02-15T13:22:39;34.30;;;18.20;;
78430;SDS011;67727;50.236;22.452;2023-02-15T13:25:22;24.80;;;13.20;;
78430;SDS011;67727;50.236;22.452;2023-02-15T13:27:52;24.10;;;14.00;;
78430;SDS011;67727;50.236;22.452;2023-02-15T13:30:24;17.40;;;11.00;;
78430;SDS011;67727;50.236;22.452;2023-02-15T13:32:55;18.20;;;11.40;;
78430;SDS011;67727;50.236;22.452;2023-02-15T13:35:27;21.10;;;12.20;;
78430;SDS011;67727;50.236;22.452;2023-02-15T13:38:11;21.40;;;14.80;;
78430;SDS011;67727;50.236;22.452;2023-02-15T13:49:17;22.20;;;11.80;;
78430;SDS011;67727;50.236;22.452;2023-02-15T14:20:25;23.70;;;14.10;;
78430;SDS011;67727;50.236;22.452;2023-02-15T14:23:03;27.10;;;15.70;;
78430;SDS011;67727;50.236;22.452;2023-02-15T14:25:35;29.20;;;15.30;;
78430;SDS011;67727;50.236;22.452;2023-02-15T14:28:09;26.30;;;15.00;;
78430;SDS011;67727;50.236;22.452;2023-02-15T14:30:43;28.60;;;15.70;;
78430;SDS011;67727;50.236;22.452;2023-02-15T14:33:33;27.20;;;16.40;;
78430;SDS011;67727;50.236;22.452;2023-02-15T14:36:13;25.00;;;14.00;;
78430;SDS011;67727;50.236;22.452;2023-02-15T14:45:06;27.80;;;14.10;;
78430;SDS011;67727;50.236;22.452;2023-02-15T14:47:42;30.20;;;16.90;;
78430;SDS011;67727;50.236;22.452;2023-02-15T14:58:35;31.20;;;17.30;;
78430;SDS011;67727;50.236;22.452;2023-02-15T15:01:07;27.80;;;16.20;;
78430;SDS011;67727;50.236;22.452;2023-02-15T15:03:48;43.00;;;23.00;;
78430;SDS011;67727;50.236;22.452;2023-02-15T15:06:39;36.60;;;21.50;;
78430;SDS011;67727;50.236;22.452;2023-02-15T15:09:29;31.10;;;17.80;;
78430;SDS011;67727;50.236;22.452;2023-02-15T15:14:43;49.90;;;26.40;;
78430;SDS011;67727;50.236;22.452;2023-02-15T15:17:10;55.30;;;26.80;;
78430;SDS011;67727;50.236;22.452;2023-02-15T15:20:01;52.40;;;26.10;;
78430;SDS011;67727;50.236;22.452;2023-02-15T15:22:34;50.60;;;26.50;;
78430;SDS011;67727;50.236;22.452;2023-02-15T15:32:53;45.70;;;26.50;;
78430;SDS011;67727;50.236;22.452;2023-02-15T15:50:16;70.90;;;35.50;;
78430;SDS011;67727;50.236;22.452;2023-02-15T15:52:55;74.60;;;34.40;;
78430;SDS011;67727;50.236;22.452;2023-02-15T15:55:26;85.60;;;46.80;;
78430;SDS011;67727;50.236;22.452;2023-02-15T15:58:02;72.10;;;39.80;;
78430;SDS011;67727;50.236;22.452;2023-02-15T16:03:14;75.60;;;40.50;;
78430;SDS011;67727;50.236;22.452;2023-02-15T16:05:52;76.70;;;41.10;;
78430;SDS011;67727;50.236;22.452;2023-02-15T16:08:38;77.70;;;43.20;;
78430;SDS011;67727;50.236;22.452;2023-02-15T16:11:25;87.80;;;52.00;;
78430;SDS011;67727;50.236;22.452;2023-02-15T16:13:55;107.30;;;54.70;;
78430;SDS011;67727;50.236;22.452;2023-02-15T16:16:26;105.70;;;54.00;;
78430;SDS011;67727;50.236;22.452;2023-02-15T16:18:55;133.70;;;61.90;;
78430;SDS011;67727;50.236;22.452;2023-02-15T16:21:29;134.60;;;65.50;;
78430;SDS011;67727;50.236;22.452;2023-02-15T16:29:32;164.30;;;65.80;;
78430;SDS011;67727;50.236;22.452;2023-02-15T16:32:04;149.00;;;63.90;;
78430;SDS011;67727;50.236;22.452;2023-02-15T16:34:51;172.10;;;74.50;;
78430;SDS011;67727;50.236;22.452;2023-02-15T16:37:33;155.10;;;61.10;;
78430;SDS011;67727;50.236;22.452;2023-02-15T16:40:01;165.80;;;61.00;;
78430;SDS011;67727;50.236;22.452;2023-02-15T16:42:28;152.00;;;62.00;;
78430;SDS011;67727;50.236;22.452;2023-02-15T16:44:55;139.50;;;60.10;;
78430;SDS011;67727;50.236;22.452;2023-02-15T16:47:33;149.50;;;67.00;;
78430;SDS011;67727;50.236;22.452;2023-02-15T16:50:03;141.90;;;63.20;;
78430;SDS011;67727;50.236;22.452;2023-02-15T16:52:32;145.40;;;61.60;;
78430;SDS011;67727;50.236;22.452;2023-02-15T16:55:00;133.90;;;62.00;;
78430;SDS011;67727;50.236;22.452;2023-02-15T16:57:31;123.20;;;57.30;;
78430;SDS011;67727;50.236;22.452;2023-02-15T17:00:05;125.50;;;59.20;;
78430;SDS011;67727;50.236;22.452;2023-02-15T17:02:54;123.90;;;58.90;;
78430;SDS011;67727;50.236;22.452;2023-02-15T17:05:33;115.50;;;55.50;;
78430;SDS011;67727;50.236;22.452;2023-02-15T17:10:44;99.40;;;48.50;;
78430;SDS011;67727;50.236;22.452;2023-02-15T17:13:28;96.80;;;44.80;;
78430;SDS011;67727;50.236;22.452;2023-02-15T17:18:38;94.20;;;42.60;;
78430;SDS011;67727;50.236;22.452;2023-02-15T17:21:12;88.10;;;41.60;;
78430;SDS011;67727;50.236;22.452;2023-02-15T17:23:47;106.30;;;52.70;;
78430;SDS011;67727;50.236;22.452;2023-02-15T17:26:23;157.80;;;58.90;;
78430;SDS011;67727;50.236;22.452;2023-02-15T17:28:53;142.50;;;60.00;;
78430;SDS011;67727;50.236;22.452;2023-02-15T17:31:24;104.60;;;44.50;;
78430;SDS011;67727;50.236;22.452;2023-02-15T17:33:54;113.20;;;49.70;;
78430;SDS011;67727;50.236;22.452;2023-02-15T17:36:23;128.50;;;60.80;;
78430;SDS011;67727;50.236;22.452;2023-02-15T17:41:25;115.50;;;66.90;;
78430;SDS011;67727;50.236;22.452;2023-02-15T17:44:00;128.00;;;69.20;;
78430;SDS011;67727;50.236;22.452;2023-02-15T17:46:34;134.70;;;74.80;;
78430;SDS011;67727;50.236;22.452;2023-02-15T17:49:11;160.40;;;86.80;;
78430;SDS011;67727;50.236;22.452;2023-02-15T17:51:49;200.50;;;103.30;;
78430;SDS011;67727;50.236;22.452;2023-02-15T17:54:18;197.80;;;101.60;;
78430;SDS011;67727;50.236;22.452;2023-02-15T17:57:08;185.60;;;96.80;;
78430;SDS011;67727;50.236;22.452;2023-02-15T17:59:40;168.90;;;90.80;;
78430;SDS011;67727;50.236;22.452;2023-02-15T18:02:26;170.50;;;94.70;;
78430;SDS011;67727;50.236;22.452;2023-02-15T18:05:21;174.00;;;85.50;;
78430;SDS011;67727;50.236;22.452;2023-02-15T18:08:25;151.80;;;69.00;;
78430;SDS011;67727;50.236;22.452;2023-02-15T18:11:12;136.50;;;62.60;;
78430;SDS011;67727;50.236;22.452;2023-02-15T18:13:57;116.80;;;56.90;;
78430;SDS011;67727;50.236;22.452;2023-02-15T18:16:41;107.30;;;57.40;;
78430;SDS011;67727;50.236;22.452;2023-02-15T18:19:15;106.10;;;56.20;;
78430;SDS011;67727;50.236;22.452;2023-02-15T18:21:44;112.80;;;56.90;;
78430;SDS011;67727;50.236;22.452;2023-02-15T18:26:46;122.60;;;60.50;;
78430;SDS011;67727;50.236;22.452;2023-02-15T18:29:14;135.10;;;67.60;;
78430;SDS011;67727;50.236;22.452;2023-02-15T18:31:41;138.60;;;72.60;;
78430;SDS011;67727;50.236;22.452;2023-02-15T18:34:14;146.90;;;72.30;;
78430;SDS011;67727;50.236;22.452;2023-02-15T18:36:48;127.20;;;67.60;;
78430;SDS011;67727;50.236;22.452;2023-02-15T18:39:22;126.30;;;62.50;;
78430;SDS011;67727;50.236;22.452;2023-02-15T18:41:52;121.00;;;62.60;;
78430;SDS011;67727;50.236;22.452;2023-02-15T18:44:19;121.00;;;61.50;;
78430;SDS011;67727;50.236;22.452;2023-02-15T18:46:46;109.50;;;50.50;;